createdAt,value
2019-02-03T00:03:46.560Z,68.57
2019-02-03T00:08:53.878Z,66.57
2019-02-03T00:14:00.369Z,69.73
2019-02-03T00:19:05.876Z,65.33
2019-02-03T00:24:13.279Z,70.20
2019-02-03T00:29:20.393Z,71.77
2019-02-03T00:34:33.162Z,68.27
2019-02-03T00:39:38.889Z,70.73
2019-02-03T00:44:50.494Z,74.97
2019-02-03T00:50:01.514Z,70.30
2019-02-03T00:55:09.438Z,68.80
2019-02-03T01:00:15.564Z,68.50
2019-02-03T01:05:20.819Z,71.00
2019-02-03T01:10:25.965Z,79.37
2019-02-03T01:15:32.411Z,75.23
2019-02-03T01:20:37.774Z,71.10
2019-02-03T01:25:42.865Z,77.17
2019-02-03T01:30:48.330Z,69.83
2019-02-03T01:35:53.993Z,74.80
2019-02-03T01:40:59.248Z,71.10
2019-02-03T01:46:04.360Z,68.83
2019-02-03T01:51:09.487Z,73.20
2019-02-03T01:56:14.627Z,72.73
2019-02-03T02:01:19.772Z,73.90
2019-02-03T02:06:25.321Z,73.27
2019-02-03T02:11:30.459Z,72.77
2019-02-03T02:16:35.722Z,69.80
2019-02-03T02:21:40.808Z,69.63
2019-02-03T02:26:46.865Z,71.53
2019-02-03T02:31:52.126Z,69.83
2019-02-03T02:36:57.276Z,70.13
2019-02-03T02:42:02.455Z,60.53
2019-02-03T02:47:07.796Z,62.40
2019-02-03T02:52:12.937Z,67.10
2019-02-03T02:57:18.100Z,64.23
2019-02-03T03:02:23.355Z,68.77
2019-02-03T03:07:28.545Z,64.30
2019-02-03T03:12:33.781Z,67.10
2019-02-03T03:17:38.863Z,69.10
2019-02-03T03:22:43.928Z,77.83
2019-02-03T03:27:49.434Z,76.17
2019-02-03T03:32:54.576Z,78.57
2019-02-03T03:37:59.578Z,70.30
2019-02-03T03:43:04.705Z,80.37
2019-02-03T03:48:10.109Z,72.43
2019-02-03T03:53:15.322Z,78.70
2019-02-03T03:58:20.513Z,73.40
2019-02-03T04:03:26.554Z,79.23
2019-02-03T04:08:44.175Z,81.57
2019-02-03T04:13:38.455Z,74.17
2019-02-03T04:18:44.061Z,80.57
2019-02-03T04:23:49.150Z,77.73
2019-02-03T04:28:54.223Z,77.57
2019-02-03T04:33:59.452Z,68.30
2019-02-03T04:39:06.826Z,76.17
2019-02-03T04:44:12.144Z,78.67
2019-02-03T04:49:17.384Z,67.07
2019-02-03T04:54:22.495Z,73.80
2019-02-03T04:59:27.647Z,75.37
2019-02-03T05:04:32.798Z,68.83
2019-02-03T05:09:38.024Z,72.57
2019-02-03T05:14:43.183Z,76.97
2019-02-03T05:19:48.338Z,73.83
2019-02-03T05:24:53.494Z,75.17
2019-02-03T05:29:58.895Z,72.47
2019-02-03T05:35:05.119Z,72.20
2019-02-03T05:40:11.936Z,72.23
2019-02-03T05:45:18.362Z,78.13
2019-02-03T05:50:23.624Z,73.80
2019-02-03T05:55:28.810Z,85.67
2019-02-03T06:00:36.435Z,77.57
2019-02-03T06:05:41.501Z,73.23
2019-02-03T06:10:46.633Z,79.33
2019-02-03T06:15:51.893Z,82.47
2019-02-03T06:20:57.043Z,78.63
2019-02-03T06:26:02.189Z,72.80
2019-02-03T06:31:14.250Z,74.10
2019-02-03T06:36:19.342Z,71.87
2019-02-03T06:41:24.481Z,74.20
2019-02-03T06:46:45.458Z,75.07
2019-02-03T06:51:50.718Z,66.30
2019-02-03T06:56:56.953Z,75.27
2019-02-03T07:02:02.126Z,72.20
2019-02-03T07:07:07.259Z,67.73
2019-02-03T07:12:12.417Z,69.43
2019-02-03T07:17:17.616Z,66.30
2019-02-03T07:22:23.177Z,69.50
2019-02-03T07:27:29.945Z,69.40
2019-02-03T07:32:35.104Z,61.70
2019-02-03T07:37:40.259Z,61.00
2019-02-03T07:42:45.492Z,61.80
2019-02-03T07:47:50.648Z,61.23
2019-02-03T07:52:57.116Z,58.53
2019-02-03T07:58:02.398Z,62.70
2019-02-03T08:03:07.683Z,66.23
2019-02-03T08:08:12.802Z,60.87
2019-02-03T08:13:18.569Z,63.83
2019-02-03T08:18:23.888Z,59.30
2019-02-03T08:23:30.477Z,61.43
2019-02-03T08:28:35.768Z,59.50
2019-02-03T08:33:44.005Z,61.63
2019-02-03T08:38:50.900Z,63.37
2019-02-03T08:43:59.493Z,60.00
2019-02-03T08:49:04.689Z,62.43
2019-02-03T08:54:12.786Z,56.00
2019-02-03T08:59:18.270Z,60.33
2019-02-03T09:04:24.667Z,60.57
2019-02-03T09:09:29.749Z,60.27
2019-02-03T09:14:35.183Z,61.70
2019-02-03T09:19:40.535Z,60.77
2019-02-03T09:24:47.278Z,58.27
2019-02-03T09:29:53.754Z,59.63
2019-02-03T09:34:59.577Z,56.00
2019-02-03T09:40:06.461Z,55.10
2019-02-03T09:45:13.643Z,58.13
2019-02-03T09:50:29.725Z,57.37
2019-02-03T09:55:36.697Z,54.33
2019-02-03T10:00:42.773Z,61.77
2019-02-03T10:05:51.566Z,57.40
2019-02-03T10:11:11.295Z,52.30
2019-02-03T10:16:07.710Z,56.53
2019-02-03T10:21:13.675Z,53.50
2019-02-03T10:26:23.329Z,49.53
2019-02-03T10:31:29.511Z,51.30
2019-02-03T10:36:34.683Z,57.77
2019-02-03T10:41:40.167Z,53.80
2019-02-03T10:46:47.289Z,50.50
2019-02-03T10:51:52.466Z,55.37
2019-02-03T10:56:57.615Z,50.63
2019-02-03T11:02:03.115Z,51.70
2019-02-03T11:07:08.553Z,50.37
2019-02-03T11:12:13.704Z,55.27
2019-02-03T11:17:18.835Z,56.13
2019-02-03T11:22:25.259Z,53.60
2019-02-03T11:27:30.473Z,53.80
2019-02-03T11:32:36.129Z,55.70
2019-02-03T11:37:41.214Z,55.93
2019-02-03T11:42:46.567Z,53.20
2019-02-03T11:47:51.741Z,55.47
2019-02-03T11:52:57.245Z,56.67
2019-02-03T11:58:03.762Z,54.13
2019-02-03T12:03:09.093Z,52.87
2019-02-03T12:08:14.344Z,52.87
2019-02-03T12:13:19.716Z,54.63
2019-02-03T12:18:25.896Z,49.90
2019-02-03T12:23:32.224Z,46.07
2019-02-03T12:28:37.409Z,53.33
2019-02-03T12:33:42.682Z,53.30
2019-02-03T12:38:47.771Z,52.00
2019-02-03T12:43:52.892Z,57.13
2019-02-03T12:48:58.692Z,53.60
2019-02-03T12:54:04.083Z,53.03
2019-02-03T12:59:09.516Z,58.07
2019-02-03T13:04:14.889Z,53.93
2019-02-03T13:09:19.957Z,53.17
2019-02-03T13:14:25.142Z,51.90
2019-02-03T13:19:30.399Z,48.37
2019-02-03T13:24:35.769Z,42.77
2019-02-03T13:29:42.658Z,47.37
2019-02-03T13:34:48.431Z,53.10
2019-02-03T13:39:53.800Z,54.37
2019-02-03T13:44:59.498Z,52.90
2019-02-03T13:50:06.344Z,56.17
2019-02-03T13:55:15.487Z,48.77
2019-02-03T14:00:31.290Z,51.33
2019-02-03T14:05:39.871Z,53.43
2019-02-03T14:10:50.658Z,52.83
2019-02-03T14:15:59.022Z,58.17
2019-02-03T14:21:11.354Z,55.83
2019-02-03T14:26:17.088Z,51.20
2019-02-03T14:31:24.542Z,55.03
2019-02-03T14:36:36.955Z,60.70
2019-02-03T14:41:45.231Z,56.27
2019-02-03T14:46:52.901Z,53.20
2019-02-03T14:51:59.414Z,58.40
2019-02-03T14:57:09.340Z,62.83
2019-02-03T15:02:18.023Z,52.03
2019-02-03T15:07:25.325Z,51.70
2019-02-03T15:12:33.011Z,52.07
2019-02-03T15:17:38.424Z,53.93
2019-02-03T15:22:46.399Z,55.60
2019-02-03T15:27:52.313Z,58.27
2019-02-03T15:33:00.877Z,54.10
2019-02-03T15:38:06.551Z,48.17
2019-02-03T15:43:11.751Z,55.47
2019-02-03T15:48:17.338Z,48.10
2019-02-03T15:53:29.921Z,50.57
2019-02-03T15:58:36.343Z,52.70
2019-02-03T16:03:44.997Z,52.93
2019-02-03T16:08:56.392Z,48.00
2019-02-03T16:14:04.563Z,48.30
2019-02-03T16:19:10.655Z,48.03
2019-02-03T16:24:16.100Z,51.23
2019-02-03T16:29:21.423Z,57.63
2019-02-03T16:34:27.495Z,52.53
2019-02-03T16:39:38.170Z,50.07
2019-02-03T16:44:44.498Z,53.03
2019-02-03T16:49:52.575Z,53.87
2019-02-03T16:55:00.000Z,46.57
2019-02-03T17:00:09.458Z,49.87
2019-02-03T17:05:25.993Z,54.47
2019-02-03T17:10:26.400Z,49.30
2019-02-03T17:15:38.790Z,54.27
2019-02-03T17:21:01.316Z,49.67
2019-02-03T17:26:02.944Z,49.20
2019-02-03T17:31:08.186Z,52.47
2019-02-03T17:36:14.383Z,49.73
2019-02-03T17:41:19.595Z,47.73
2019-02-03T17:46:24.796Z,45.97
2019-02-03T17:51:31.203Z,50.97
2019-02-03T17:56:36.930Z,40.87
2019-02-03T18:01:42.537Z,41.67
2019-02-03T18:06:53.008Z,44.57
2019-02-03T18:11:59.504Z,46.83
2019-02-03T18:17:06.013Z,42.33
2019-02-03T18:22:26.705Z,44.03
2019-02-03T18:27:32.376Z,43.53
2019-02-03T18:32:39.483Z,50.83
2019-02-03T18:37:48.642Z,46.57
2019-02-03T18:42:57.640Z,44.70
2019-02-03T18:48:05.756Z,44.20
2019-02-03T18:53:11.695Z,43.10
2019-02-03T18:58:17.278Z,45.23
2019-02-03T19:03:23.511Z,47.27
2019-02-03T19:08:29.043Z,43.87
2019-02-03T19:13:34.324Z,47.10
2019-02-03T19:18:44.301Z,48.00
2019-02-03T19:23:49.526Z,50.70
2019-02-03T19:28:55.036Z,53.30
2019-02-03T19:34:00.597Z,45.37
2019-02-03T19:39:09.757Z,48.07
2019-02-03T19:44:16.064Z,49.10
2019-02-03T19:49:22.258Z,47.07
2019-02-03T19:54:28.956Z,48.77
2019-02-03T19:59:46.274Z,51.37
2019-02-03T20:04:44.890Z,49.23
2019-02-03T20:09:55.735Z,52.17
2019-02-03T20:15:09.719Z,47.53
2019-02-03T20:20:14.991Z,54.33
2019-02-03T20:25:20.263Z,53.57
2019-02-03T20:30:38.096Z,47.50
2019-02-03T20:35:33.695Z,51.30
2019-02-03T20:40:45.611Z,50.80
2019-02-03T20:45:50.972Z,44.60
2019-02-03T20:50:58.710Z,47.93
2019-02-03T20:56:04.067Z,47.73
2019-02-03T21:01:11.451Z,50.07
2019-02-03T21:06:20.835Z,48.43
2019-02-03T21:11:28.149Z,47.00
2019-02-03T21:16:35.603Z,48.67
2019-02-03T21:21:42.805Z,45.33
2019-02-03T21:26:48.278Z,50.10
2019-02-03T21:31:53.540Z,43.37
2019-02-03T21:36:59.548Z,41.63
2019-02-03T21:42:06.980Z,43.10
2019-02-03T21:47:12.285Z,39.43
2019-02-03T21:52:17.889Z,38.33
2019-02-03T21:57:23.544Z,43.63
2019-02-03T22:02:28.653Z,45.93
2019-02-03T22:07:36.395Z,41.07
2019-02-03T22:12:44.090Z,44.43
2019-02-03T22:17:51.173Z,44.20
2019-02-03T22:22:56.370Z,40.70
2019-02-03T22:28:01.650Z,40.43
2019-02-03T22:33:11.409Z,36.70
2019-02-03T22:38:17.250Z,41.77
2019-02-03T22:43:22.913Z,44.20
2019-02-03T22:48:31.480Z,45.43
2019-02-03T22:53:36.580Z,44.43
2019-02-03T22:58:42.465Z,46.43
2019-02-03T23:04:32.317Z,39.80
2019-02-03T23:09:42.696Z,42.13
2019-02-03T23:14:48.092Z,42.07
2019-02-03T23:19:53.351Z,39.03
2019-02-03T23:25:03.750Z,38.63
2019-02-03T23:30:13.099Z,41.90
2019-02-03T23:35:18.542Z,36.87
2019-02-03T23:40:23.695Z,39.73
2019-02-03T23:45:28.827Z,43.87
2019-02-03T23:50:33.876Z,41.33
2019-02-03T23:55:39.022Z,38.40
